createdAt,value
2017-07-18T00:02:23.091Z,20.25
2017-07-18T00:04:49.106Z,20.34
2017-07-18T00:07:14.955Z,20.33
2017-07-18T00:09:40.908Z,20.37
2017-07-18T00:12:06.752Z,20.29
2017-07-18T00:14:32.607Z,20.23
2017-07-18T00:16:58.577Z,20.08
2017-07-18T00:19:24.444Z,20.15
2017-07-18T00:21:50.430Z,20.17
2017-07-18T00:24:16.253Z,20.14
2017-07-18T00:26:42.102Z,20.14
2017-07-18T00:29:08.093Z,20.08
2017-07-18T00:31:33.971Z,20.03
2017-07-18T00:33:59.928Z,19.93
2017-07-18T00:36:25.774Z,19.87
2017-07-18T00:38:51.604Z,19.99
2017-07-18T00:41:18.433Z,19.93
2017-07-18T00:43:44.363Z,19.87
2017-07-18T00:46:10.223Z,19.64
2017-07-18T00:48:36.089Z,19.83
2017-07-18T00:51:01.924Z,19.72
2017-07-18T00:53:27.864Z,19.68
2017-07-18T00:55:53.725Z,19.45
2017-07-18T00:58:19.609Z,19.47
2017-07-18T01:00:45.598Z,19.61
2017-07-18T01:03:11.455Z,19.56
2017-07-18T01:05:37.365Z,19.45
2017-07-18T01:08:03.270Z,19.47
2017-07-18T01:10:29.210Z,19.51
2017-07-18T01:12:55.072Z,19.40
2017-07-18T01:15:21.060Z,19.54
2017-07-18T01:17:46.936Z,19.45
2017-07-18T01:20:12.825Z,19.38
2017-07-18T01:22:38.709Z,19.30
2017-07-18T01:25:04.590Z,19.39
2017-07-18T01:27:30.464Z,19.27
2017-07-18T01:29:56.353Z,19.18
2017-07-18T01:32:22.225Z,19.24
2017-07-18T01:34:48.154Z,19.15
2017-07-18T01:37:14.060Z,19.09
2017-07-18T01:39:39.917Z,19.00
2017-07-18T01:42:05.801Z,19.01
2017-07-18T01:44:31.682Z,18.79
2017-07-18T01:46:57.534Z,18.69
2017-07-18T01:49:23.407Z,18.70
2017-07-18T01:51:49.531Z,18.68
2017-07-18T01:54:15.408Z,18.46
2017-07-18T01:56:41.267Z,18.64
2017-07-18T01:59:07.272Z,18.65
2017-07-18T02:01:33.253Z,18.58
2017-07-18T02:03:59.105Z,18.54
2017-07-18T02:06:24.990Z,18.62
2017-07-18T02:08:50.929Z,18.58
2017-07-18T02:11:16.811Z,18.48
2017-07-18T02:13:42.853Z,18.43
2017-07-18T02:16:08.805Z,18.49
2017-07-18T02:18:34.698Z,18.49
2017-07-18T02:21:00.620Z,18.51
2017-07-18T02:23:26.536Z,18.40
2017-07-18T02:25:52.445Z,18.41
2017-07-18T02:28:18.288Z,18.33
2017-07-18T02:30:44.220Z,17.95
2017-07-18T02:33:10.213Z,17.95
2017-07-18T02:35:36.128Z,18.01
2017-07-18T02:38:02.004Z,17.92
2017-07-18T02:40:27.908Z,18.09
2017-07-18T02:42:53.818Z,17.95
2017-07-18T02:45:19.709Z,18.00
2017-07-18T02:47:45.644Z,18.00
2017-07-18T02:50:11.500Z,17.97
2017-07-18T02:52:37.575Z,18.07
2017-07-18T02:55:03.540Z,18.06
2017-07-18T02:57:29.429Z,17.91
2017-07-18T02:59:55.349Z,18.00
2017-07-18T03:02:21.211Z,17.91
2017-07-18T03:04:47.085Z,17.92
2017-07-18T03:07:12.991Z,17.81
2017-07-18T03:09:38.865Z,17.70
2017-07-18T03:12:04.732Z,17.81
2017-07-18T03:14:30.789Z,17.75
2017-07-18T03:16:56.669Z,17.72
2017-07-18T03:19:22.592Z,17.73
2017-07-18T03:21:48.561Z,17.78
2017-07-18T03:24:26.517Z,17.77
2017-07-18T03:26:52.484Z,17.78
2017-07-18T03:29:18.345Z,17.88
2017-07-18T03:31:44.222Z,17.80
2017-07-18T03:34:10.099Z,17.74
2017-07-18T03:36:36.004Z,17.93
2017-07-18T03:39:01.945Z,18.01
2017-07-18T03:41:27.765Z,17.74
2017-07-18T03:43:53.601Z,17.79
2017-07-18T03:46:19.428Z,17.86
2017-07-18T03:48:45.230Z,17.89
2017-07-18T03:51:11.083Z,17.55
2017-07-18T03:53:36.894Z,17.79
2017-07-18T03:56:02.730Z,17.73
2017-07-18T03:58:28.554Z,17.71
2017-07-18T04:00:54.441Z,17.75
2017-07-18T04:03:20.317Z,17.73
2017-07-18T04:05:46.143Z,17.71
2017-07-18T04:08:11.976Z,17.76
2017-07-18T04:10:37.811Z,17.74
2017-07-18T04:13:03.736Z,17.90
2017-07-18T04:15:29.610Z,17.84
2017-07-18T04:17:55.437Z,17.85
2017-07-18T04:20:21.302Z,17.82
2017-07-18T04:22:47.091Z,17.89
2017-07-18T04:25:12.954Z,17.77
2017-07-18T04:27:38.814Z,17.79
2017-07-18T04:30:04.669Z,17.80
2017-07-18T04:32:30.571Z,17.80
2017-07-18T04:34:56.495Z,17.95
2017-07-18T04:37:22.401Z,17.94
2017-07-18T04:39:48.269Z,17.95
2017-07-18T04:42:14.098Z,18.08
2017-07-18T04:44:39.916Z,18.23
2017-07-18T04:47:05.742Z,17.95
2017-07-18T04:49:31.623Z,17.95
2017-07-18T04:51:57.421Z,18.05
2017-07-18T04:54:23.329Z,18.27
2017-07-18T04:56:49.233Z,18.03
2017-07-18T04:59:15.249Z,18.21
2017-07-18T05:01:41.053Z,18.23
2017-07-18T05:04:06.896Z,18.34
2017-07-18T05:06:32.906Z,18.37
2017-07-18T05:08:58.946Z,18.32
2017-07-18T05:11:24.983Z,18.23
2017-07-18T05:13:50.914Z,18.38
2017-07-18T05:16:16.707Z,18.52
2017-07-18T05:18:42.567Z,18.55
2017-07-18T05:21:08.368Z,18.82
2017-07-18T05:23:34.160Z,18.73
2017-07-18T05:26:00.633Z,18.50
2017-07-18T05:28:26.438Z,18.83
2017-07-18T05:30:52.255Z,19.11
2017-07-18T05:33:18.086Z,19.16
2017-07-18T05:35:44.003Z,19.20
2017-07-18T05:38:09.831Z,19.58
2017-07-18T05:40:35.629Z,19.62
2017-07-18T05:43:01.659Z,19.78
2017-07-18T05:45:27.502Z,19.93
2017-07-18T05:47:53.383Z,20.08
2017-07-18T05:50:19.213Z,20.40
2017-07-18T05:52:45.049Z,20.27
2017-07-18T05:55:10.905Z,20.28
2017-07-18T05:57:36.749Z,20.29
2017-07-18T06:00:02.670Z,20.44
2017-07-18T06:02:28.591Z,20.56
2017-07-18T06:04:54.434Z,20.65
2017-07-18T06:07:20.378Z,20.85
2017-07-18T06:09:46.208Z,21.04
2017-07-18T06:12:12.104Z,21.21
2017-07-18T06:14:38.038Z,21.20
2017-07-18T06:17:03.850Z,21.32
2017-07-18T06:19:29.698Z,21.46
2017-07-18T06:21:55.581Z,21.50
2017-07-18T06:24:21.490Z,21.74
2017-07-18T06:26:47.306Z,21.83
2017-07-18T06:29:13.345Z,21.89
2017-07-18T06:31:39.331Z,22.19
2017-07-18T06:34:05.160Z,22.23
2017-07-18T06:36:31.121Z,22.39
2017-07-18T06:38:57.031Z,22.45
2017-07-18T06:41:22.931Z,22.54
2017-07-18T06:43:48.766Z,22.39
2017-07-18T06:46:14.683Z,22.79
2017-07-18T06:48:40.712Z,23.05
2017-07-18T06:51:07.746Z,23.15
2017-07-18T06:53:33.803Z,23.54
2017-07-18T06:55:59.762Z,23.88
2017-07-18T06:58:25.598Z,23.78
2017-07-18T07:00:51.649Z,23.69
2017-07-18T07:03:17.639Z,23.95
2017-07-18T07:05:43.663Z,24.32
2017-07-18T07:08:10.316Z,24.37
2017-07-18T07:10:36.285Z,24.33
2017-07-18T07:13:02.137Z,24.45
2017-07-18T07:15:28.150Z,24.58
2017-07-18T07:17:54.218Z,24.89
2017-07-18T07:20:20.248Z,24.55
2017-07-18T07:22:46.147Z,24.67
2017-07-18T07:25:12.109Z,25.01
2017-07-18T07:27:38.955Z,25.51
2017-07-18T07:30:05.480Z,25.68
2017-07-18T07:32:33.094Z,25.32
2017-07-18T07:35:00.162Z,25.28
2017-07-18T07:37:27.134Z,24.89
2017-07-18T07:39:54.005Z,25.21
2017-07-18T07:42:20.615Z,25.36
2017-07-18T07:44:49.022Z,25.27
2017-07-18T07:47:15.673Z,25.64
2017-07-18T07:49:42.778Z,25.38
2017-07-18T07:52:09.444Z,25.63
2017-07-18T07:54:35.883Z,25.70
2017-07-18T07:57:02.394Z,25.62
2017-07-18T07:59:29.040Z,25.76
2017-07-18T08:01:55.667Z,25.86
2017-07-18T08:04:21.988Z,26.19
2017-07-18T08:06:48.525Z,26.49
2017-07-18T08:09:14.446Z,26.54
2017-07-18T08:11:41.167Z,26.34
2017-07-18T08:14:07.752Z,26.42
2017-07-18T08:16:34.413Z,26.50
2017-07-18T08:19:00.914Z,26.50
2017-07-18T08:21:27.652Z,26.54
2017-07-18T08:23:54.296Z,26.71
2017-07-18T08:26:20.247Z,26.75
2017-07-18T08:28:46.315Z,26.93
2017-07-18T08:31:12.235Z,27.24
2017-07-18T08:33:38.095Z,27.34
2017-07-18T08:36:03.949Z,27.33
2017-07-18T08:38:29.961Z,27.64
2017-07-18T08:40:55.908Z,27.56
2017-07-18T08:43:21.824Z,27.65
2017-07-18T08:45:47.803Z,27.95
2017-07-18T08:48:13.654Z,27.94
2017-07-18T08:50:39.594Z,28.31
2017-07-18T08:53:05.450Z,28.37
2017-07-18T08:55:31.315Z,28.93
2017-07-18T08:57:57.138Z,28.42
2017-07-18T09:00:23.119Z,28.44
2017-07-18T09:02:48.982Z,28.31
2017-07-18T09:05:14.914Z,28.55
2017-07-18T09:07:40.836Z,28.82
2017-07-18T09:10:06.769Z,29.06
2017-07-18T09:12:32.595Z,28.81
2017-07-18T09:14:58.509Z,28.43
2017-07-18T09:17:24.413Z,27.94
2017-07-18T09:19:50.340Z,28.82
2017-07-18T09:22:16.296Z,28.96
2017-07-18T09:24:42.242Z,28.76
2017-07-18T09:27:08.148Z,28.48
2017-07-18T09:29:34.203Z,28.67
2017-07-18T09:32:00.037Z,30.08
2017-07-18T09:34:26.004Z,29.88
2017-07-18T09:36:51.866Z,29.93
2017-07-18T09:39:17.828Z,29.44
2017-07-18T09:41:43.683Z,29.59
2017-07-18T09:44:10.500Z,29.70
2017-07-18T09:46:36.374Z,29.76
2017-07-18T09:49:02.325Z,29.93
2017-07-18T09:51:28.230Z,29.43
2017-07-18T09:53:54.157Z,29.73
2017-07-18T09:56:20.061Z,30.23
2017-07-18T09:58:46.032Z,30.68
2017-07-18T10:01:11.898Z,31.37
2017-07-18T10:03:37.831Z,31.63
2017-07-18T10:06:03.704Z,31.36
2017-07-18T10:08:29.562Z,30.91
2017-07-18T10:10:55.628Z,30.25
2017-07-18T10:13:21.560Z,31.21
2017-07-18T10:15:47.407Z,31.84
2017-07-18T10:18:13.241Z,32.24
2017-07-18T10:20:39.299Z,32.40
2017-07-18T10:23:05.202Z,32.20
2017-07-18T10:25:31.143Z,32.78
2017-07-18T10:27:57.172Z,33.12
2017-07-18T10:30:23.072Z,31.82
2017-07-18T10:32:55.914Z,32.03
2017-07-18T10:35:21.757Z,32.58
2017-07-18T10:37:47.700Z,32.59
2017-07-18T10:40:13.580Z,32.73
2017-07-18T10:42:39.612Z,32.82
2017-07-18T10:45:05.461Z,33.52
2017-07-18T10:47:31.497Z,33.82
2017-07-18T10:49:57.454Z,33.86
2017-07-18T10:52:23.306Z,34.15
2017-07-18T10:54:49.293Z,34.26
2017-07-18T10:57:15.145Z,33.35
2017-07-18T10:59:40.997Z,33.50
2017-07-18T11:02:06.945Z,30.98
2017-07-18T11:04:32.813Z,32.55
2017-07-18T11:06:58.732Z,33.38
2017-07-18T11:09:24.624Z,32.48
2017-07-18T11:11:50.469Z,31.81
2017-07-18T11:14:16.394Z,33.24
2017-07-18T11:16:42.384Z,31.03
2017-07-18T11:19:08.238Z,30.89
2017-07-18T11:21:34.104Z,31.08
2017-07-18T11:24:00.041Z,31.42
2017-07-18T11:26:26.012Z,31.08
2017-07-18T11:28:51.929Z,30.56
2017-07-18T11:31:17.842Z,32.00
2017-07-18T11:33:43.777Z,34.15
2017-07-18T11:36:09.631Z,35.00
2017-07-18T11:38:35.530Z,34.34
2017-07-18T11:41:01.536Z,33.72
2017-07-18T11:43:27.454Z,31.40
2017-07-18T11:45:53.337Z,32.42
2017-07-18T11:48:19.392Z,33.00
2017-07-18T11:50:45.361Z,32.39
2017-07-18T11:53:11.189Z,33.85
2017-07-18T11:55:37.065Z,33.73
2017-07-18T11:58:03.028Z,33.12
2017-07-18T12:00:28.894Z,33.07
2017-07-18T12:03:01.670Z,32.86
2017-07-18T12:05:27.643Z,32.54
2017-07-18T12:07:53.531Z,31.63
2017-07-18T12:10:19.452Z,31.81
2017-07-18T12:12:45.356Z,31.84
2017-07-18T12:15:11.465Z,33.33
2017-07-18T12:17:37.494Z,34.07
2017-07-18T12:20:03.389Z,33.15
2017-07-18T12:22:29.246Z,33.71
2017-07-18T12:24:55.225Z,33.96
2017-07-18T12:27:21.120Z,34.03
2017-07-18T12:29:47.042Z,33.73
2017-07-18T12:32:12.869Z,33.17
2017-07-18T12:34:38.748Z,34.10
2017-07-18T12:37:04.709Z,35.22
2017-07-18T12:39:30.604Z,34.51
2017-07-18T12:41:56.611Z,34.05
2017-07-18T12:44:22.572Z,34.16
2017-07-18T12:46:48.535Z,33.95
2017-07-18T12:49:14.448Z,35.30
2017-07-18T12:51:40.565Z,33.26
2017-07-18T12:54:06.478Z,32.34
2017-07-18T12:56:32.327Z,32.58
2017-07-18T12:58:58.217Z,33.92
2017-07-18T13:01:24.110Z,35.05
2017-07-18T13:03:49.998Z,32.13
2017-07-18T13:06:15.950Z,33.82
2017-07-18T13:08:41.863Z,34.62
2017-07-18T13:11:07.832Z,33.84
2017-07-18T13:13:33.692Z,32.22
2017-07-18T13:15:59.867Z,32.89
2017-07-18T13:18:25.786Z,33.36
2017-07-18T13:20:51.789Z,32.44
2017-07-18T13:23:17.756Z,34.18
2017-07-18T13:25:43.612Z,35.72
2017-07-18T13:28:09.548Z,35.19
2017-07-18T13:30:35.450Z,34.80
2017-07-18T13:33:01.381Z,33.00
2017-07-18T13:35:27.277Z,34.04
2017-07-18T13:37:53.218Z,34.06
2017-07-18T13:40:19.070Z,34.70
2017-07-18T13:42:44.978Z,34.49
2017-07-18T13:45:10.896Z,32.97
2017-07-18T13:47:36.870Z,33.58
2017-07-18T13:50:02.812Z,32.60
2017-07-18T13:52:28.764Z,32.85
2017-07-18T13:54:54.661Z,32.24
2017-07-18T13:57:21.204Z,31.79
2017-07-18T13:59:47.148Z,30.85
2017-07-18T14:02:13.125Z,31.66
2017-07-18T14:04:38.979Z,33.13
2017-07-18T14:07:04.923Z,33.07
2017-07-18T14:09:30.809Z,34.27
2017-07-18T14:11:56.740Z,34.18
2017-07-18T14:14:22.710Z,34.40
2017-07-18T14:16:48.574Z,35.61
2017-07-18T14:19:14.428Z,35.95
2017-07-18T14:21:40.349Z,35.56
2017-07-18T14:24:06.237Z,34.66
2017-07-18T14:26:32.129Z,34.32
2017-07-18T14:28:58.114Z,33.97
2017-07-18T14:31:24.001Z,33.28
2017-07-18T14:33:49.932Z,33.10
2017-07-18T14:36:15.789Z,33.37
2017-07-18T14:38:41.653Z,32.67
2017-07-18T14:41:07.704Z,32.51
2017-07-18T14:43:33.689Z,33.39
2017-07-18T14:45:59.657Z,33.78
2017-07-18T14:48:25.648Z,34.46
2017-07-18T14:50:51.477Z,34.13
2017-07-18T14:53:17.329Z,33.67
2017-07-18T14:55:43.260Z,33.85
2017-07-18T14:58:09.259Z,34.55
2017-07-18T15:00:35.303Z,34.53
2017-07-18T15:03:01.267Z,34.89
2017-07-18T15:05:27.182Z,34.06
2017-07-18T15:07:53.197Z,33.03
2017-07-18T15:10:19.040Z,33.25
2017-07-18T15:12:44.891Z,33.01
2017-07-18T15:15:10.804Z,33.83
2017-07-18T15:17:36.735Z,34.09
2017-07-18T15:20:02.610Z,34.31
2017-07-18T15:22:28.747Z,34.95
2017-07-18T15:24:54.592Z,33.32
2017-07-18T15:27:35.649Z,33.61
2017-07-18T15:30:01.567Z,33.10
2017-07-18T15:32:27.497Z,33.20
2017-07-18T15:34:53.465Z,32.99
2017-07-18T15:37:19.532Z,32.69
2017-07-18T15:39:45.452Z,33.87
2017-07-18T15:42:11.316Z,33.47
2017-07-18T15:44:37.184Z,33.64
2017-07-18T15:47:03.119Z,32.72
2017-07-18T15:49:28.960Z,32.19
2017-07-18T15:51:54.838Z,32.95
2017-07-18T15:54:20.823Z,33.43
2017-07-18T15:56:46.696Z,33.89
2017-07-18T15:59:12.676Z,33.35
2017-07-18T16:01:38.632Z,33.95
2017-07-18T16:04:04.496Z,34.05
2017-07-18T16:06:30.388Z,34.14
2017-07-18T16:08:56.358Z,34.25
2017-07-18T16:11:22.392Z,34.36
2017-07-18T16:13:48.475Z,34.09
2017-07-18T16:16:14.368Z,34.22
2017-07-18T16:18:40.209Z,33.15
2017-07-18T16:21:06.308Z,33.04
2017-07-18T16:23:32.157Z,32.73
2017-07-18T16:25:58.035Z,33.00
2017-07-18T16:28:24.096Z,32.20
2017-07-18T16:30:49.938Z,31.90
2017-07-18T16:33:15.819Z,31.91
2017-07-18T16:35:41.735Z,31.78
2017-07-18T16:38:07.692Z,32.32
2017-07-18T16:40:33.529Z,32.20
2017-07-18T16:42:59.400Z,32.13
2017-07-18T16:45:25.338Z,31.87
2017-07-18T16:47:51.275Z,31.91
2017-07-18T16:50:17.180Z,31.99
2017-07-18T16:52:43.033Z,32.20
2017-07-18T16:55:09.066Z,32.46
2017-07-18T16:57:35.110Z,32.18
2017-07-18T17:00:01.167Z,32.11
2017-07-18T17:02:27.133Z,31.92
2017-07-18T17:04:52.996Z,31.91
2017-07-18T17:07:18.863Z,31.78
2017-07-18T17:09:44.856Z,31.61
2017-07-18T17:12:10.780Z,31.76
2017-07-18T17:14:36.627Z,31.46
2017-07-18T17:17:09.411Z,31.54
2017-07-18T17:19:35.275Z,31.51
2017-07-18T17:22:01.351Z,31.39
2017-07-18T17:24:27.288Z,31.33
2017-07-18T17:26:53.304Z,31.21
2017-07-18T17:29:19.383Z,31.25
2017-07-18T17:31:45.255Z,31.18
2017-07-18T17:34:11.117Z,31.13
2017-07-18T17:36:37.046Z,30.37
2017-07-18T17:39:02.905Z,30.69
2017-07-18T17:41:28.908Z,30.72
2017-07-18T17:43:54.865Z,30.55
2017-07-18T17:46:20.730Z,30.73
2017-07-18T17:48:46.613Z,30.60
2017-07-18T17:51:12.571Z,30.50
2017-07-18T17:53:38.528Z,30.42
2017-07-18T17:56:04.376Z,30.17
2017-07-18T17:58:30.372Z,30.16
2017-07-18T18:00:56.257Z,30.17
2017-07-18T18:03:22.106Z,30.04
2017-07-18T18:05:48.140Z,30.27
2017-07-18T18:08:14.152Z,30.34
2017-07-18T18:10:40.105Z,30.19
2017-07-18T18:13:06.202Z,29.90
2017-07-18T18:15:32.147Z,29.79
2017-07-18T18:17:58.186Z,29.88
2017-07-18T18:20:24.167Z,29.93
2017-07-18T18:22:50.059Z,30.02
2017-07-18T18:25:15.905Z,29.94
2017-07-18T18:27:41.932Z,29.80
2017-07-18T18:30:07.812Z,29.86
2017-07-18T18:32:33.702Z,29.96
2017-07-18T18:34:59.576Z,29.95
2017-07-18T18:37:25.477Z,29.82
2017-07-18T18:39:51.398Z,29.51
2017-07-18T18:42:17.367Z,29.51
2017-07-18T18:44:43.222Z,29.43
2017-07-18T18:47:09.160Z,29.43
2017-07-18T18:49:35.063Z,29.17
2017-07-18T18:52:01.054Z,29.20
2017-07-18T18:54:26.933Z,29.35
2017-07-18T18:56:52.866Z,29.17
2017-07-18T18:59:18.736Z,28.93
2017-07-18T19:01:44.808Z,28.93
2017-07-18T19:04:10.746Z,28.86
2017-07-18T19:06:36.572Z,28.81
2017-07-18T19:09:02.649Z,28.83
2017-07-18T19:11:28.676Z,28.82
2017-07-18T19:13:54.618Z,28.66
2017-07-18T19:16:20.500Z,28.60
2017-07-18T19:18:46.481Z,28.55
2017-07-18T19:21:12.525Z,28.23
2017-07-18T19:23:38.418Z,28.23
2017-07-18T19:26:04.342Z,28.23
2017-07-18T19:28:30.209Z,28.23
2017-07-18T19:30:56.256Z,28.11
2017-07-18T19:33:22.209Z,28.12
2017-07-18T19:35:48.300Z,27.90
2017-07-18T19:38:14.232Z,27.98
2017-07-18T19:40:40.091Z,27.88
2017-07-18T19:43:06.047Z,27.74
2017-07-18T19:45:32.021Z,27.71
2017-07-18T19:47:57.888Z,27.68
2017-07-18T19:50:23.882Z,27.55
2017-07-18T19:52:49.821Z,27.56
2017-07-18T19:55:15.796Z,27.35
2017-07-18T19:57:41.779Z,27.40
2017-07-18T20:00:07.679Z,27.26
2017-07-18T20:02:33.656Z,27.39
2017-07-18T20:04:59.581Z,27.45
2017-07-18T20:07:25.460Z,27.31
2017-07-18T20:09:51.381Z,27.31
2017-07-18T20:12:17.344Z,27.11
2017-07-18T20:14:43.260Z,26.82
2017-07-18T20:17:09.290Z,26.95
2017-07-18T20:19:35.205Z,26.96
2017-07-18T20:22:01.107Z,26.96
2017-07-18T20:24:27.072Z,26.77
2017-07-18T20:26:52.953Z,26.77
2017-07-18T20:29:18.860Z,26.81
2017-07-18T20:31:44.854Z,26.92
2017-07-18T20:34:11.530Z,26.85
2017-07-18T20:36:37.417Z,26.68
2017-07-18T20:39:03.441Z,25.70
2017-07-18T20:41:29.496Z,25.90
2017-07-18T20:43:55.428Z,26.25
2017-07-18T20:46:21.420Z,26.28
2017-07-18T20:48:47.356Z,26.13
2017-07-18T20:51:13.367Z,25.97
2017-07-18T20:53:39.265Z,25.93
2017-07-18T20:56:05.136Z,26.10
2017-07-18T20:58:31.060Z,26.19
2017-07-18T21:00:57.774Z,26.22
2017-07-18T21:03:23.793Z,26.15
2017-07-18T21:05:49.670Z,26.30
2017-07-18T21:08:15.766Z,26.49
2017-07-18T21:10:41.701Z,26.03
2017-07-18T21:13:07.532Z,26.28
2017-07-18T21:15:34.365Z,26.23
2017-07-18T21:18:00.236Z,25.83
2017-07-18T21:20:26.253Z,25.68
2017-07-18T21:22:52.228Z,25.67
2017-07-18T21:25:18.085Z,25.64
2017-07-18T21:27:43.927Z,24.98
2017-07-18T21:30:09.888Z,24.86
2017-07-18T21:32:35.785Z,24.89
2017-07-18T21:35:01.697Z,24.62
2017-07-18T21:37:27.545Z,24.87
2017-07-18T21:39:53.416Z,24.96
2017-07-18T21:42:19.365Z,25.11
2017-07-18T21:44:45.261Z,25.26
2017-07-18T21:47:11.196Z,25.07
2017-07-18T21:49:37.148Z,24.83
2017-07-18T21:52:03.039Z,24.66
2017-07-18T21:54:28.881Z,24.91
2017-07-18T21:56:54.777Z,24.72
2017-07-18T21:59:21.513Z,24.78
2017-07-18T22:01:47.373Z,24.23
2017-07-18T22:04:13.300Z,23.98
2017-07-18T22:06:39.228Z,23.98
2017-07-18T22:09:05.065Z,24.08
2017-07-18T22:11:30.890Z,24.04
2017-07-18T22:13:56.768Z,24.04
2017-07-18T22:16:22.765Z,24.02
2017-07-18T22:18:48.689Z,23.95
2017-07-18T22:21:14.583Z,24.08
2017-07-18T22:23:40.521Z,24.04
2017-07-18T22:26:06.362Z,23.62
2017-07-18T22:28:32.269Z,23.98
2017-07-18T22:30:58.212Z,23.87
2017-07-18T22:33:24.054Z,23.69
2017-07-18T22:35:49.887Z,23.56
2017-07-18T22:38:15.982Z,23.66
2017-07-18T22:40:41.934Z,23.67
2017-07-18T22:43:07.774Z,23.69
2017-07-18T22:45:33.741Z,23.67
2017-07-18T22:47:59.620Z,23.84
2017-07-18T22:50:25.545Z,23.79
2017-07-18T22:52:51.448Z,23.71
2017-07-18T22:55:17.312Z,23.70
2017-07-18T22:57:43.242Z,23.69
2017-07-18T23:00:09.099Z,23.56
2017-07-18T23:02:34.981Z,23.63
2017-07-18T23:05:00.877Z,23.60
2017-07-18T23:07:26.784Z,23.46
2017-07-18T23:09:52.767Z,23.53
2017-07-18T23:12:18.816Z,23.42
2017-07-18T23:14:44.762Z,23.27
2017-07-18T23:17:10.633Z,23.03
2017-07-18T23:19:36.682Z,23.08
2017-07-18T23:22:02.616Z,23.22
2017-07-18T23:24:28.496Z,23.02
2017-07-18T23:26:54.347Z,22.70
2017-07-18T23:29:20.272Z,22.54
2017-07-18T23:31:46.957Z,22.52
2017-07-18T23:34:12.810Z,22.44
2017-07-18T23:36:38.700Z,22.48
2017-07-18T23:39:04.583Z,22.49
2017-07-18T23:41:30.472Z,22.38
2017-07-18T23:43:56.517Z,22.50
2017-07-18T23:46:22.521Z,22.42
2017-07-18T23:48:48.513Z,22.44
2017-07-18T23:51:14.339Z,22.33
2017-07-18T23:53:40.221Z,22.20
2017-07-18T23:56:06.140Z,22.40
2017-07-18T23:58:31.992Z,22.16
